sensor_id;sensor_type;location;lat;lon;timestamp;temperature;humidity
30280;DHT22;17097;50.916;5.344;2024-03-02T00:01:17;10.70;99.90
30280;DHT22;17097;50.916;5.344;2024-03-02T00:03:42;10.40;99.90
30280;DHT22;17097;50.916;5.344;2024-03-02T00:06:09;10.30;99.90
30280;DHT22;17097;50.916;5.344;2024-03-02T00:08:35;10.10;99.90
30280;DHT22;17097;50.916;5.344;2024-03-02T00:11:02;10.00;99.90
30280;DHT22;17097;50.916;5.344;2024-03-02T00:13:31;9.70;99.90
30280;DHT22;17097;50.916;5.344;2024-03-02T00:15:58;9.70;99.90
30280;DHT22;17097;50.916;5.344;2024-03-02T00:18:34;9.70;99.90
30280;DHT22;17097;50.916;5.344;2024-03-02T00:21:03;9.50;99.90
30280;DHT22;17097;50.916;5.344;2024-03-02T00:23:33;9.60;99.90
30280;DHT22;17097;50.916;5.344;2024-03-02T00:26:02;9.50;99.90
30280;DHT22;17097;50.916;5.344;2024-03-02T00:28:33;9.60;99.90
30280;DHT22;17097;50.916;5.344;2024-03-02T00:31:05;9.50;99.90
30280;DHT22;17097;50.916;5.344;2024-03-02T00:33:35;9.20;99.90
30280;DHT22;17097;50.916;5.344;2024-03-02T00:36:05;9.10;99.90
30280;DHT22;17097;50.916;5.344;2024-03-02T00:38:32;9.20;99.90
30280;DHT22;17097;50.916;5.344;2024-03-02T00:41:04;9.20;99.90
30280;DHT22;17097;50.916;5.344;2024-03-02T00:43:45;9.30;99.90
30280;DHT22;17097;50.916;5.344;2024-03-02T00:46:12;9.40;99.90
30280;DHT22;17097;50.916;5.344;2024-03-02T00:48:40;9.30;99.90
30280;DHT22;17097;50.916;5.344;2024-03-02T00:51:08;9.10;99.90
30280;DHT22;17097;50.916;5.344;2024-03-02T00:53:33;9.00;99.90
30280;DHT22;17097;50.916;5.344;2024-03-02T00:56:00;9.10;99.90
30280;DHT22;17097;50.916;5.344;2024-03-02T00:58:26;9.10;99.90
30280;DHT22;17097;50.916;5.344;2024-03-02T01:00:52;9.20;99.90
30280;DHT22;17097;50.916;5.344;2024-03-02T01:03:20;9.10;99.90
30280;DHT22;17097;50.916;5.344;2024-03-02T01:05:48;9.20;99.90
30280;DHT22;17097;50.916;5.344;2024-03-02T01:08:14;9.30;99.90
30280;DHT22;17097;50.916;5.344;2024-03-02T01:10:40;9.30;99.90
30280;DHT22;17097;50.916;5.344;2024-03-02T01:13:05;9.30;99.90
30280;DHT22;17097;50.916;5.344;2024-03-02T01:15:31;9.10;99.90
30280;DHT22;17097;50.916;5.344;2024-03-02T01:18:00;9.10;99.90
30280;DHT22;17097;50.916;5.344;2024-03-02T01:20:26;9.30;99.90
30280;DHT22;17097;50.916;5.344;2024-03-02T01:22:52;9.10;99.90
30280;DHT22;17097;50.916;5.344;2024-03-02T01:25:18;9.10;99.90
30280;DHT22;17097;50.916;5.344;2024-03-02T01:27:44;9.10;99.90
30280;DHT22;17097;50.916;5.344;2024-03-02T01:30:12;9.10;99.90
30280;DHT22;17097;50.916;5.344;2024-03-02T01:32:40;9.10;99.90
30280;DHT22;17097;50.916;5.344;2024-03-02T01:35:06;9.00;99.90
30280;DHT22;17097;50.916;5.344;2024-03-02T01:37:33;9.10;99.90
30280;DHT22;17097;50.916;5.344;2024-03-02T01:39:58;9.00;99.90
30280;DHT22;17097;50.916;5.344;2024-03-02T01:42:26;8.90;99.90
30280;DHT22;17097;50.916;5.344;2024-03-02T01:44:52;8.80;99.90
30280;DHT22;17097;50.916;5.344;2024-03-02T01:47:18;8.90;99.90
30280;DHT22;17097;50.916;5.344;2024-03-02T01:49:43;8.90;99.90
30280;DHT22;17097;50.916;5.344;2024-03-02T01:52:09;9.00;99.90
30280;DHT22;17097;50.916;5.344;2024-03-02T01:54:34;9.10;99.90
30280;DHT22;17097;50.916;5.344;2024-03-02T01:57:00;9.10;99.90
30280;DHT22;17097;50.916;5.344;2024-03-02T01:59:26;9.20;99.90
30280;DHT22;17097;50.916;5.344;2024-03-02T02:01:52;9.30;99.90
30280;DHT22;17097;50.916;5.344;2024-03-02T02:04:18;9.60;99.90
30280;DHT22;17097;50.916;5.344;2024-03-02T02:06:47;9.50;99.90
30280;DHT22;17097;50.916;5.344;2024-03-02T02:09:12;9.40;99.90
30280;DHT22;17097;50.916;5.344;2024-03-02T02:11:40;9.50;99.90
30280;DHT22;17097;50.916;5.344;2024-03-02T02:14:08;9.30;99.90
30280;DHT22;17097;50.916;5.344;2024-03-02T02:16:33;9.00;99.90
30280;DHT22;17097;50.916;5.344;2024-03-02T02:18:59;9.00;99.90
30280;DHT22;17097;50.916;5.344;2024-03-02T02:21:25;8.90;99.90
30280;DHT22;17097;50.916;5.344;2024-03-02T02:23:51;8.60;99.90
30280;DHT22;17097;50.916;5.344;2024-03-02T02:26:17;8.70;99.90
30280;DHT22;17097;50.916;5.344;2024-03-02T02:28:42;8.70;99.90
30280;DHT22;17097;50.916;5.344;2024-03-02T02:31:13;8.70;99.90
30280;DHT22;17097;50.916;5.344;2024-03-02T02:33:42;8.70;99.90
30280;DHT22;17097;50.916;5.344;2024-03-02T02:36:10;8.80;99.90
30280;DHT22;17097;50.916;5.344;2024-03-02T02:38:40;8.70;99.90
30280;DHT22;17097;50.916;5.344;2024-03-02T02:41:07;8.70;99.90
30280;DHT22;17097;50.916;5.344;2024-03-02T02:43:33;8.60;99.90
30280;DHT22;17097;50.916;5.344;2024-03-02T02:45:59;8.50;99.90
30280;DHT22;17097;50.916;5.344;2024-03-02T02:48:24;8.60;99.90
30280;DHT22;17097;50.916;5.344;2024-03-02T02:50:53;8.80;99.90
30280;DHT22;17097;50.916;5.344;2024-03-02T02:53:18;8.90;99.90
30280;DHT22;17097;50.916;5.344;2024-03-02T02:55:46;8.90;99.90
30280;DHT22;17097;50.916;5.344;2024-03-02T02:58:12;9.00;99.90
30280;DHT22;17097;50.916;5.344;2024-03-02T03:00:38;8.90;99.90
30280;DHT22;17097;50.916;5.344;2024-03-02T03:03:04;8.80;99.90
30280;DHT22;17097;50.916;5.344;2024-03-02T03:05:32;8.80;99.90
30280;DHT22;17097;50.916;5.344;2024-03-02T03:07:57;8.70;99.90
30280;DHT22;17097;50.916;5.344;2024-03-02T03:10:25;8.80;99.90
30280;DHT22;17097;50.916;5.344;2024-03-02T03:12:55;8.70;99.90
30280;DHT22;17097;50.916;5.344;2024-03-02T03:15:21;8.90;99.90
30280;DHT22;17097;50.916;5.344;2024-03-02T03:17:49;8.90;99.90
30280;DHT22;17097;50.916;5.344;2024-03-02T03:20:16;9.10;99.90
30280;DHT22;17097;50.916;5.344;2024-03-02T03:22:42;9.00;99.90
30280;DHT22;17097;50.916;5.344;2024-03-02T03:25:07;9.00;99.90
30280;DHT22;17097;50.916;5.344;2024-03-02T03:27:36;9.10;99.90
30280;DHT22;17097;50.916;5.344;2024-03-02T03:30:01;9.00;99.90
30280;DHT22;17097;50.916;5.344;2024-03-02T03:32:33;8.90;99.90
30280;DHT22;17097;50.916;5.344;2024-03-02T03:34:59;8.90;99.90
30280;DHT22;17097;50.916;5.344;2024-03-02T03:37:24;8.90;99.90
30280;DHT22;17097;50.916;5.344;2024-03-02T03:39:52;8.80;99.90
30280;DHT22;17097;50.916;5.344;2024-03-02T03:42:17;9.10;99.90
30280;DHT22;17097;50.916;5.344;2024-03-02T03:44:43;9.30;99.90
30280;DHT22;17097;50.916;5.344;2024-03-02T03:47:09;9.20;99.90
30280;DHT22;17097;50.916;5.344;2024-03-02T03:49:34;9.20;99.90
30280;DHT22;17097;50.916;5.344;2024-03-02T03:52:00;9.10;99.90
30280;DHT22;17097;50.916;5.344;2024-03-02T03:54:25;9.00;99.90
30280;DHT22;17097;50.916;5.344;2024-03-02T03:56:51;9.10;99.90
30280;DHT22;17097;50.916;5.344;2024-03-02T03:59:17;9.20;99.90
30280;DHT22;17097;50.916;5.344;2024-03-02T04:01:45;9.20;99.90
30280;DHT22;17097;50.916;5.344;2024-03-02T04:04:13;9.00;99.90
30280;DHT22;17097;50.916;5.344;2024-03-02T04:06:39;9.00;99.90
30280;DHT22;17097;50.916;5.344;2024-03-02T04:09:04;9.00;99.90
30280;DHT22;17097;50.916;5.344;2024-03-02T04:11:30;8.90;99.90
30280;DHT22;17097;50.916;5.344;2024-03-02T04:13:56;8.80;99.90
30280;DHT22;17097;50.916;5.344;2024-03-02T04:16:22;8.90;99.90
30280;DHT22;17097;50.916;5.344;2024-03-02T04:18:48;8.90;99.90
30280;DHT22;17097;50.916;5.344;2024-03-02T04:21:13;9.00;99.90
30280;DHT22;17097;50.916;5.344;2024-03-02T04:23:39;8.90;99.90
30280;DHT22;17097;50.916;5.344;2024-03-02T04:26:07;8.90;99.90
30280;DHT22;17097;50.916;5.344;2024-03-02T04:28:35;8.70;99.90
30280;DHT22;17097;50.916;5.344;2024-03-02T04:31:03;8.70;99.90
30280;DHT22;17097;50.916;5.344;2024-03-02T04:33:28;8.90;99.90
30280;DHT22;17097;50.916;5.344;2024-03-02T04:35:54;8.70;99.90
30280;DHT22;17097;50.916;5.344;2024-03-02T04:38:23;8.60;99.90
30280;DHT22;17097;50.916;5.344;2024-03-02T04:40:48;8.60;99.90
30280;DHT22;17097;50.916;5.344;2024-03-02T04:43:14;8.60;99.90
30280;DHT22;17097;50.916;5.344;2024-03-02T04:45:41;8.70;99.90
30280;DHT22;17097;50.916;5.344;2024-03-02T04:48:08;8.80;99.90
30280;DHT22;17097;50.916;5.344;2024-03-02T04:50:34;8.70;99.90
30280;DHT22;17097;50.916;5.344;2024-03-02T04:52:59;8.70;99.90
30280;DHT22;17097;50.916;5.344;2024-03-02T04:55:25;8.80;99.90
30280;DHT22;17097;50.916;5.344;2024-03-02T04:57:53;8.90;99.90
30280;DHT22;17097;50.916;5.344;2024-03-02T05:00:23;8.70;99.90
30280;DHT22;17097;50.916;5.344;2024-03-02T05:02:53;8.50;99.90
30280;DHT22;17097;50.916;5.344;2024-03-02T05:05:18;8.50;99.90
30280;DHT22;17097;50.916;5.344;2024-03-02T05:07:44;8.50;99.90
30280;DHT22;17097;50.916;5.344;2024-03-02T05:10:10;8.70;99.90
30280;DHT22;17097;50.916;5.344;2024-03-02T05:12:37;8.70;99.90
30280;DHT22;17097;50.916;5.344;2024-03-02T05:15:09;8.70;99.90
30280;DHT22;17097;50.916;5.344;2024-03-02T05:17:38;8.70;99.90
30280;DHT22;17097;50.916;5.344;2024-03-02T05:20:07;8.60;99.90
30280;DHT22;17097;50.916;5.344;2024-03-02T05:22:33;8.40;99.90
30280;DHT22;17097;50.916;5.344;2024-03-02T05:25:03;8.50;99.90
30280;DHT22;17097;50.916;5.344;2024-03-02T05:27:32;8.60;99.90
30280;DHT22;17097;50.916;5.344;2024-03-02T05:29:58;8.60;99.90
30280;DHT22;17097;50.916;5.344;2024-03-02T05:32:24;8.40;99.90
30280;DHT22;17097;50.916;5.344;2024-03-02T05:34:50;8.40;99.90
30280;DHT22;17097;50.916;5.344;2024-03-02T05:37:18;8.30;99.90
30280;DHT22;17097;50.916;5.344;2024-03-02T05:39:50;8.40;99.90
30280;DHT22;17097;50.916;5.344;2024-03-02T05:42:15;8.50;99.90
30280;DHT22;17097;50.916;5.344;2024-03-02T05:44:42;8.70;99.90
30280;DHT22;17097;50.916;5.344;2024-03-02T05:47:07;8.60;99.90
30280;DHT22;17097;50.916;5.344;2024-03-02T05:49:36;8.60;99.90
30280;DHT22;17097;50.916;5.344;2024-03-02T05:52:01;8.40;99.90
30280;DHT22;17097;50.916;5.344;2024-03-02T05:54:28;8.40;99.90
30280;DHT22;17097;50.916;5.344;2024-03-02T05:56:54;8.40;99.90
30280;DHT22;17097;50.916;5.344;2024-03-02T05:59:19;8.50;99.90
30280;DHT22;17097;50.916;5.344;2024-03-02T06:01:46;8.50;99.90
30280;DHT22;17097;50.916;5.344;2024-03-02T06:04:14;8.30;99.90
30280;DHT22;17097;50.916;5.344;2024-03-02T06:06:40;8.40;99.90
30280;DHT22;17097;50.916;5.344;2024-03-02T06:09:06;8.30;99.90
30280;DHT22;17097;50.916;5.344;2024-03-02T06:11:41;8.20;99.90
30280;DHT22;17097;50.916;5.344;2024-03-02T06:14:08;8.50;99.90
30280;DHT22;17097;50.916;5.344;2024-03-02T06:16:36;8.30;99.90
30280;DHT22;17097;50.916;5.344;2024-03-02T06:19:02;8.40;99.90
30280;DHT22;17097;50.916;5.344;2024-03-02T06:21:28;8.30;99.90
30280;DHT22;17097;50.916;5.344;2024-03-02T06:23:54;8.30;99.90
30280;DHT22;17097;50.916;5.344;2024-03-02T06:26:20;8.30;99.90
30280;DHT22;17097;50.916;5.344;2024-03-02T06:28:46;8.30;99.90
30280;DHT22;17097;50.916;5.344;2024-03-02T06:31:12;8.20;99.90
30280;DHT22;17097;50.916;5.344;2024-03-02T06:33:37;8.30;99.90
30280;DHT22;17097;50.916;5.344;2024-03-02T06:36:03;8.40;99.90
30280;DHT22;17097;50.916;5.344;2024-03-02T06:38:29;8.50;99.90
30280;DHT22;17097;50.916;5.344;2024-03-02T06:40:57;8.50;99.90
30280;DHT22;17097;50.916;5.344;2024-03-02T06:43:23;8.50;99.90
30280;DHT22;17097;50.916;5.344;2024-03-02T06:45:50;8.50;99.90
30280;DHT22;17097;50.916;5.344;2024-03-02T06:48:18;8.50;99.90
30280;DHT22;17097;50.916;5.344;2024-03-02T06:50:49;8.50;99.90
30280;DHT22;17097;50.916;5.344;2024-03-02T06:53:17;8.50;99.90
30280;DHT22;17097;50.916;5.344;2024-03-02T06:55:46;8.80;99.90
30280;DHT22;17097;50.916;5.344;2024-03-02T06:58:13;9.10;99.90
30280;DHT22;17097;50.916;5.344;2024-03-02T07:00:40;9.40;99.90
30280;DHT22;17097;50.916;5.344;2024-03-02T07:03:06;9.60;99.90
30280;DHT22;17097;50.916;5.344;2024-03-02T07:05:34;9.40;99.90
30280;DHT22;17097;50.916;5.344;2024-03-02T07:08:00;9.60;99.90
30280;DHT22;17097;50.916;5.344;2024-03-02T07:10:27;9.80;99.90
30280;DHT22;17097;50.916;5.344;2024-03-02T07:12:52;10.20;99.90
30280;DHT22;17097;50.916;5.344;2024-03-02T07:15:18;10.40;99.90
30280;DHT22;17097;50.916;5.344;2024-03-02T07:17:55;10.20;99.90
30280;DHT22;17097;50.916;5.344;2024-03-02T07:20:21;10.00;99.90
30280;DHT22;17097;50.916;5.344;2024-03-02T07:22:47;9.90;99.90
30280;DHT22;17097;50.916;5.344;2024-03-02T07:25:13;10.00;99.90
30280;DHT22;17097;50.916;5.344;2024-03-02T07:27:39;10.00;99.90
30280;DHT22;17097;50.916;5.344;2024-03-02T07:30:06;10.10;99.90
30280;DHT22;17097;50.916;5.344;2024-03-02T07:32:32;9.80;99.90
30280;DHT22;17097;50.916;5.344;2024-03-02T07:34:57;10.00;99.90
30280;DHT22;17097;50.916;5.344;2024-03-02T07:37:23;9.90;99.90
30280;DHT22;17097;50.916;5.344;2024-03-02T07:39:50;10.00;99.90
30280;DHT22;17097;50.916;5.344;2024-03-02T07:42:15;10.10;99.90
30280;DHT22;17097;50.916;5.344;2024-03-02T07:44:44;10.20;99.90
30280;DHT22;17097;50.916;5.344;2024-03-02T07:47:12;10.40;99.90
30280;DHT22;17097;50.916;5.344;2024-03-02T07:49:38;10.30;99.90
30280;DHT22;17097;50.916;5.344;2024-03-02T07:52:04;10.70;99.90
30280;DHT22;17097;50.916;5.344;2024-03-02T07:54:29;11.30;99.90
30280;DHT22;17097;50.916;5.344;2024-03-02T07:56:55;12.00;99.90
30280;DHT22;17097;50.916;5.344;2024-03-02T07:59:21;12.80;99.90
30280;DHT22;17097;50.916;5.344;2024-03-02T08:01:48;13.00;99.90
30280;DHT22;17097;50.916;5.344;2024-03-02T08:04:14;13.40;99.90
30280;DHT22;17097;50.916;5.344;2024-03-02T08:06:40;14.00;99.90
30280;DHT22;17097;50.916;5.344;2024-03-02T08:09:05;14.50;99.90
30280;DHT22;17097;50.916;5.344;2024-03-02T08:11:35;15.10;99.90
30280;DHT22;17097;50.916;5.344;2024-03-02T08:14:00;15.40;99.90
30280;DHT22;17097;50.916;5.344;2024-03-02T08:16:26;15.80;99.90
30280;DHT22;17097;50.916;5.344;2024-03-02T08:18:52;15.90;99.90
30280;DHT22;17097;50.916;5.344;2024-03-02T08:21:18;15.90;99.90
30280;DHT22;17097;50.916;5.344;2024-03-02T08:23:44;15.60;99.90
30280;DHT22;17097;50.916;5.344;2024-03-02T08:26:10;15.80;99.90
30280;DHT22;17097;50.916;5.344;2024-03-02T08:28:36;16.20;99.90
30280;DHT22;17097;50.916;5.344;2024-03-02T08:31:03;16.40;99.90
30280;DHT22;17097;50.916;5.344;2024-03-02T08:33:29;16.80;99.90
30280;DHT22;17097;50.916;5.344;2024-03-02T08:35:57;16.70;99.90
30280;DHT22;17097;50.916;5.344;2024-03-02T08:38:22;16.40;99.90
30280;DHT22;17097;50.916;5.344;2024-03-02T08:40:51;15.90;99.90
30280;DHT22;17097;50.916;5.344;2024-03-02T08:43:17;15.30;99.90
30280;DHT22;17097;50.916;5.344;2024-03-02T08:45:45;15.10;99.90
30280;DHT22;17097;50.916;5.344;2024-03-02T08:48:12;15.40;99.90
30280;DHT22;17097;50.916;5.344;2024-03-02T08:50:40;15.50;99.90
30280;DHT22;17097;50.916;5.344;2024-03-02T08:53:08;15.10;99.90
30280;DHT22;17097;50.916;5.344;2024-03-02T08:55:36;15.20;99.90
30280;DHT22;17097;50.916;5.344;2024-03-02T08:58:02;15.70;99.90
30280;DHT22;17097;50.916;5.344;2024-03-02T09:00:27;15.10;99.90
30280;DHT22;17097;50.916;5.344;2024-03-02T09:02:54;14.20;99.90
30280;DHT22;17097;50.916;5.344;2024-03-02T09:05:19;14.40;99.90
30280;DHT22;17097;50.916;5.344;2024-03-02T09:07:45;14.30;99.90
30280;DHT22;17097;50.916;5.344;2024-03-02T09:10:11;14.90;99.90
30280;DHT22;17097;50.916;5.344;2024-03-02T09:12:37;15.20;99.90
30280;DHT22;17097;50.916;5.344;2024-03-02T09:15:04;15.60;99.90
30280;DHT22;17097;50.916;5.344;2024-03-02T09:17:29;15.30;99.90
30280;DHT22;17097;50.916;5.344;2024-03-02T09:19:55;15.00;99.90
30280;DHT22;17097;50.916;5.344;2024-03-02T09:22:21;14.70;99.90
30280;DHT22;17097;50.916;5.344;2024-03-02T09:24:48;14.40;99.90
30280;DHT22;17097;50.916;5.344;2024-03-02T09:27:14;15.10;99.90
30280;DHT22;17097;50.916;5.344;2024-03-02T09:29:39;15.40;99.90
30280;DHT22;17097;50.916;5.344;2024-03-02T09:32:06;15.60;99.90
30280;DHT22;17097;50.916;5.344;2024-03-02T09:34:32;15.40;99.90
30280;DHT22;17097;50.916;5.344;2024-03-02T09:37:00;15.30;99.90
30280;DHT22;17097;50.916;5.344;2024-03-02T09:39:25;15.30;99.90
30280;DHT22;17097;50.916;5.344;2024-03-02T09:41:51;14.50;99.90
30280;DHT22;17097;50.916;5.344;2024-03-02T09:44:19;14.60;99.90
30280;DHT22;17097;50.916;5.344;2024-03-02T09:46:52;14.40;99.90
30280;DHT22;17097;50.916;5.344;2024-03-02T09:49:20;14.30;99.90
30280;DHT22;17097;50.916;5.344;2024-03-02T09:51:46;14.40;99.90
30280;DHT22;17097;50.916;5.344;2024-03-02T09:54:17;14.60;99.90
30280;DHT22;17097;50.916;5.344;2024-03-02T09:56:44;14.10;99.90
30280;DHT22;17097;50.916;5.344;2024-03-02T09:59:10;13.80;99.90
30280;DHT22;17097;50.916;5.344;2024-03-02T10:01:35;13.30;99.90
30280;DHT22;17097;50.916;5.344;2024-03-02T10:04:05;13.10;99.90
30280;DHT22;17097;50.916;5.344;2024-03-02T10:06:33;13.10;99.90
30280;DHT22;17097;50.916;5.344;2024-03-02T10:08:58;13.30;99.90
30280;DHT22;17097;50.916;5.344;2024-03-02T10:11:27;13.00;99.90
30280;DHT22;17097;50.916;5.344;2024-03-02T10:16:37;13.40;99.90
30280;DHT22;17097;50.916;5.344;2024-03-02T10:21:50;13.00;99.90
30280;DHT22;17097;50.916;5.344;2024-03-02T10:24:20;12.70;99.90
30280;DHT22;17097;50.916;5.344;2024-03-02T10:26:46;12.70;99.90
30280;DHT22;17097;50.916;5.344;2024-03-02T10:29:12;12.60;99.90
30280;DHT22;17097;50.916;5.344;2024-03-02T10:31:42;12.80;99.90
30280;DHT22;17097;50.916;5.344;2024-03-02T10:34:09;12.60;99.90
30280;DHT22;17097;50.916;5.344;2024-03-02T10:36:36;12.50;99.90
30280;DHT22;17097;50.916;5.344;2024-03-02T10:39:05;12.60;99.90
30280;DHT22;17097;50.916;5.344;2024-03-02T10:41:36;12.90;99.90
30280;DHT22;17097;50.916;5.344;2024-03-02T10:44:06;13.50;99.90
30280;DHT22;17097;50.916;5.344;2024-03-02T10:46:36;14.00;99.90
30280;DHT22;17097;50.916;5.344;2024-03-02T10:49:03;14.60;99.90
30280;DHT22;17097;50.916;5.344;2024-03-02T10:51:33;15.40;99.90
30280;DHT22;17097;50.916;5.344;2024-03-02T10:54:02;15.70;99.90
30280;DHT22;17097;50.916;5.344;2024-03-02T10:56:30;15.90;99.90
30280;DHT22;17097;50.916;5.344;2024-03-02T11:01:50;16.90;99.90
30280;DHT22;17097;50.916;5.344;2024-03-02T11:04:18;17.00;99.90
30280;DHT22;17097;50.916;5.344;2024-03-02T11:06:49;16.30;99.90
30280;DHT22;17097;50.916;5.344;2024-03-02T11:09:20;16.40;99.90
30280;DHT22;17097;50.916;5.344;2024-03-02T11:11:50;17.00;98.90
30280;DHT22;17097;50.916;5.344;2024-03-02T11:14:24;17.10;97.80
30280;DHT22;17097;50.916;5.344;2024-03-02T11:16:51;17.50;97.30
30280;DHT22;17097;50.916;5.344;2024-03-02T11:19:18;17.90;97.10
30280;DHT22;17097;50.916;5.344;2024-03-02T11:21:44;18.00;96.20
30280;DHT22;17097;50.916;5.344;2024-03-02T11:26:51;18.00;95.60
30280;DHT22;17097;50.916;5.344;2024-03-02T11:32:02;18.30;94.80
30280;DHT22;17097;50.916;5.344;2024-03-02T11:34:37;17.80;95.10
30280;DHT22;17097;50.916;5.344;2024-03-02T11:37:05;17.70;96.30
30280;DHT22;17097;50.916;5.344;2024-03-02T11:39:33;17.80;95.60
30280;DHT22;17097;50.916;5.344;2024-03-02T11:41:59;17.10;96.10
30280;DHT22;17097;50.916;5.344;2024-03-02T11:44:26;16.90;96.70
30280;DHT22;17097;50.916;5.344;2024-03-02T11:46:59;16.70;96.90
30280;DHT22;17097;50.916;5.344;2024-03-02T11:49:41;17.00;96.20
30280;DHT22;17097;50.916;5.344;2024-03-02T11:52:11;16.90;96.50
30280;DHT22;17097;50.916;5.344;2024-03-02T11:54:39;16.60;97.10
30280;DHT22;17097;50.916;5.344;2024-03-02T11:57:12;16.30;98.00
30280;DHT22;17097;50.916;5.344;2024-03-02T11:59:39;16.10;98.50
30280;DHT22;17097;50.916;5.344;2024-03-02T12:02:06;16.00;99.40
30280;DHT22;17097;50.916;5.344;2024-03-02T12:04:32;16.20;98.80
30280;DHT22;17097;50.916;5.344;2024-03-02T12:07:01;16.50;99.50
30280;DHT22;17097;50.916;5.344;2024-03-02T12:09:28;16.80;98.20
30280;DHT22;17097;50.916;5.344;2024-03-02T12:12:02;16.70;98.10
30280;DHT22;17097;50.916;5.344;2024-03-02T12:14:31;16.40;98.00
30280;DHT22;17097;50.916;5.344;2024-03-02T12:16:57;16.20;98.80
30280;DHT22;17097;50.916;5.344;2024-03-02T12:19:25;15.90;99.70
30280;DHT22;17097;50.916;5.344;2024-03-02T12:21:51;15.80;99.90
30280;DHT22;17097;50.916;5.344;2024-03-02T12:24:17;15.70;99.90
30280;DHT22;17097;50.916;5.344;2024-03-02T12:26:43;16.00;99.90
30280;DHT22;17097;50.916;5.344;2024-03-02T12:29:09;15.90;99.90
30280;DHT22;17097;50.916;5.344;2024-03-02T12:31:35;16.10;99.90
30280;DHT22;17097;50.916;5.344;2024-03-02T12:34:06;16.30;99.90
30280;DHT22;17097;50.916;5.344;2024-03-02T12:36:38;16.80;99.60
30280;DHT22;17097;50.916;5.344;2024-03-02T12:39:04;16.80;98.60
30280;DHT22;17097;50.916;5.344;2024-03-02T12:41:31;16.80;99.00
30280;DHT22;17097;50.916;5.344;2024-03-02T12:43:57;16.70;99.80
30280;DHT22;17097;50.916;5.344;2024-03-02T12:46:23;16.60;99.90
30280;DHT22;17097;50.916;5.344;2024-03-02T12:48:51;16.70;99.90
30280;DHT22;17097;50.916;5.344;2024-03-02T12:51:17;17.30;99.00
30280;DHT22;17097;50.916;5.344;2024-03-02T12:53:42;17.40;98.20
30280;DHT22;17097;50.916;5.344;2024-03-02T12:56:11;16.90;98.50
30280;DHT22;17097;50.916;5.344;2024-03-02T12:58:40;16.50;98.90
30280;DHT22;17097;50.916;5.344;2024-03-02T13:01:07;16.30;99.70
30280;DHT22;17097;50.916;5.344;2024-03-02T13:03:39;16.40;99.90
30280;DHT22;17097;50.916;5.344;2024-03-02T13:06:06;16.20;99.90
30280;DHT22;17097;50.916;5.344;2024-03-02T13:08:35;16.10;99.90
30280;DHT22;17097;50.916;5.344;2024-03-02T13:11:01;16.10;99.90
30280;DHT22;17097;50.916;5.344;2024-03-02T13:13:30;16.20;99.90
30280;DHT22;17097;50.916;5.344;2024-03-02T13:15:56;15.70;99.90
30280;DHT22;17097;50.916;5.344;2024-03-02T13:18:24;15.70;99.90
30280;DHT22;17097;50.916;5.344;2024-03-02T13:20:50;15.80;99.90
30280;DHT22;17097;50.916;5.344;2024-03-02T13:23:16;15.80;99.90
30280;DHT22;17097;50.916;5.344;2024-03-02T13:25:41;15.80;99.90
30280;DHT22;17097;50.916;5.344;2024-03-02T13:28:08;15.60;99.90
30280;DHT22;17097;50.916;5.344;2024-03-02T13:30:34;15.80;99.90
30280;DHT22;17097;50.916;5.344;2024-03-02T13:33:00;15.90;99.90
30280;DHT22;17097;50.916;5.344;2024-03-02T13:35:27;16.20;99.90
30280;DHT22;17097;50.916;5.344;2024-03-02T13:37:53;16.10;99.90
30280;DHT22;17097;50.916;5.344;2024-03-02T13:40:21;16.30;99.90
30280;DHT22;17097;50.916;5.344;2024-03-02T13:42:47;16.50;99.90
30280;DHT22;17097;50.916;5.344;2024-03-02T13:45:13;16.20;99.90
30280;DHT22;17097;50.916;5.344;2024-03-02T13:47:41;16.30;99.90
30280;DHT22;17097;50.916;5.344;2024-03-02T13:50:07;16.30;99.90
30280;DHT22;17097;50.916;5.344;2024-03-02T13:52:33;16.30;99.90
30280;DHT22;17097;50.916;5.344;2024-03-02T13:54:59;16.10;99.90
30280;DHT22;17097;50.916;5.344;2024-03-02T13:57:26;15.70;99.90
30280;DHT22;17097;50.916;5.344;2024-03-02T13:59:53;15.60;99.90
30280;DHT22;17097;50.916;5.344;2024-03-02T14:02:22;15.40;99.90
30280;DHT22;17097;50.916;5.344;2024-03-02T14:04:48;15.60;99.90
30280;DHT22;17097;50.916;5.344;2024-03-02T14:07:14;15.90;99.90
30280;DHT22;17097;50.916;5.344;2024-03-02T14:09:39;16.20;99.90
30280;DHT22;17097;50.916;5.344;2024-03-02T14:12:05;16.20;99.90
30280;DHT22;17097;50.916;5.344;2024-03-02T14:14:31;16.40;99.90
30280;DHT22;17097;50.916;5.344;2024-03-02T14:16:57;16.50;99.90
30280;DHT22;17097;50.916;5.344;2024-03-02T14:19:29;16.60;99.90
30280;DHT22;17097;50.916;5.344;2024-03-02T14:21:54;16.30;99.90
30280;DHT22;17097;50.916;5.344;2024-03-02T14:24:22;16.30;99.90
30280;DHT22;17097;50.916;5.344;2024-03-02T14:26:54;16.50;99.90
30280;DHT22;17097;50.916;5.344;2024-03-02T14:29:19;16.30;99.90
30280;DHT22;17097;50.916;5.344;2024-03-02T14:31:45;16.30;99.90
30280;DHT22;17097;50.916;5.344;2024-03-02T14:34:16;15.80;99.90
30280;DHT22;17097;50.916;5.344;2024-03-02T14:36:42;15.80;99.90
30280;DHT22;17097;50.916;5.344;2024-03-02T14:39:10;15.50;99.90
30280;DHT22;17097;50.916;5.344;2024-03-02T14:41:36;15.40;99.90
30280;DHT22;17097;50.916;5.344;2024-03-02T14:44:02;15.40;99.90
30280;DHT22;17097;50.916;5.344;2024-03-02T14:46:28;15.40;99.90
30280;DHT22;17097;50.916;5.344;2024-03-02T14:48:54;15.30;99.90
30280;DHT22;17097;50.916;5.344;2024-03-02T14:51:22;15.60;99.90
30280;DHT22;17097;50.916;5.344;2024-03-02T14:53:48;15.50;99.90
30280;DHT22;17097;50.916;5.344;2024-03-02T14:56:13;15.50;99.90
30280;DHT22;17097;50.916;5.344;2024-03-02T14:58:42;15.40;99.90
30280;DHT22;17097;50.916;5.344;2024-03-02T15:01:12;15.40;99.90
30280;DHT22;17097;50.916;5.344;2024-03-02T15:03:38;15.30;99.90
30280;DHT22;17097;50.916;5.344;2024-03-02T15:06:04;15.30;99.90
30280;DHT22;17097;50.916;5.344;2024-03-02T15:08:33;15.50;99.90
30280;DHT22;17097;50.916;5.344;2024-03-02T15:10:58;15.50;99.90
30280;DHT22;17097;50.916;5.344;2024-03-02T15:13:25;15.60;99.90
30280;DHT22;17097;50.916;5.344;2024-03-02T15:15:54;15.40;99.90
30280;DHT22;17097;50.916;5.344;2024-03-02T15:18:20;15.30;99.90
30280;DHT22;17097;50.916;5.344;2024-03-02T15:20:45;15.10;99.90
30280;DHT22;17097;50.916;5.344;2024-03-02T15:23:11;15.30;99.90
30280;DHT22;17097;50.916;5.344;2024-03-02T15:25:37;15.00;99.90
30280;DHT22;17097;50.916;5.344;2024-03-02T15:28:07;14.80;99.90
30280;DHT22;17097;50.916;5.344;2024-03-02T15:30:33;14.70;99.90
30280;DHT22;17097;50.916;5.344;2024-03-02T15:32:58;14.60;99.90
30280;DHT22;17097;50.916;5.344;2024-03-02T15:35:26;14.60;99.90
30280;DHT22;17097;50.916;5.344;2024-03-02T15:37:52;14.90;99.90
30280;DHT22;17097;50.916;5.344;2024-03-02T15:40:18;14.70;99.90
30280;DHT22;17097;50.916;5.344;2024-03-02T15:42:43;14.80;99.90
30280;DHT22;17097;50.916;5.344;2024-03-02T15:45:09;14.90;99.90
30280;DHT22;17097;50.916;5.344;2024-03-02T15:47:35;15.00;99.90
30280;DHT22;17097;50.916;5.344;2024-03-02T15:50:02;14.90;99.90